Have a Safe July 4th! 

Flight Track Log - Related Links

Times and Time Zones

All times are in EDT time to prevent confusion due to time zone crossing. See the N179WB flight status page for this flight to view local times or setup timezone preferences in your user account.

Time Position Orientation Groundspeed Altitude Reporting Facility
EDT Latitude Longitude Course Direction KTS MPH feet Rate Location/Type
Wed 03:36:20 PM 29.5225 -98.4653 159° South 153 176 1,400  Level Houston Center
Wed 03:38:10 PM 29.4408 -98.4289 188° South 174 200 4,700 1,737 Climbing Houston Center
Wed 03:38:52 PM 29.4094 -98.4339 270° West 189 217 5,800 1,761 Climbing Houston Center
Wed 03:39:59 PM 29.4092 -98.4792 327° Northwest 172 198 7,900 1,746 Climbing Houston Center
Wed 03:41:06 PM 29.4514 -98.5106 329° Northwest 174 200 9,700 1,453 Climbing Houston Center
Wed 03:42:07 PM 29.4978 -98.5422 329° Northwest 193 222 11,000 639 Climbing Houston Center
Wed 03:43:08 PM 29.5564 -98.5819 335° Northwest 242 278 11,000  Level Houston Center
Wed 03:43:57 PM 29.6111 -98.6119 332° Northwest 255 293 11,000  Level Houston Center
Wed 03:45:04 PM 29.6797 -98.6547 331° Northwest 256 295 11,000 -50 Level Houston Center
Wed 03:45:58 PM 29.7344 -98.6894 332° Northwest 254 292 10,900 313 Descending Houston Center
Wed 03:46:59 PM 29.7969 -98.7272 328° Northwest 251 289 11,600 714 Climbing Houston Center
Wed 03:48:04 PM 29.8553 -98.7694 313° West 246 283 12,400 672 Climbing Houston Center
Wed 03:49:04 PM 29.8983 -98.8228 310° West 246 283 13,000 300 Climbing Houston Center
Wed 03:50:04 PM 29.9469 -98.8908 309° West 252 290 13,000  Level Houston Center
Wed 03:51:04 PM 29.9894 -98.9511 307° West 262 302 13,000 706 Level Houston Center
Wed 03:52:03 PM 30.0358 -99.0217 303° West 262 302 14,400 1,550 Climbing Houston Center
Wed 03:53:04 PM 30.0644 -99.0717 306° West 227 261 16,100 1,636 Climbing Houston Center
Wed 03:54:04 PM 30.0969 -99.1242 307° West 218 251 17,700 1,450 Climbing Houston Center
Wed 03:55:04 PM 30.1333 -99.1797 305° West 212 244 19,000 1,450 Climbing Houston Center
Wed 03:56:04 PM 30.1658 -99.2325 306° West 212 244 20,600 1,450 Climbing Houston Center
Wed 03:57:04 PM 30.2003 -99.2878 306° West 212 244 21,900 700 Climbing Houston Center
Wed 03:58:04 PM 30.2406 -99.3508 306° West 218 251 22,000 50 Climbing Houston Center
Wed 03:59:04 PM 30.2844 -99.4214 306° West 247 284 22,000  Level Houston Center
Wed 04:00:04 PM 30.3283 -99.4922 306° West 266 306 22,000  Level Houston Center
Wed 04:01:04 PM 30.3722 -99.5628 304° West 273 314 22,000  Level Houston Center
Wed 04:02:04 PM 30.4158 -99.6383 306° West 279 321 22,000  Level Houston Center
Wed 04:03:03 PM 30.4672 -99.7194 307° West 279 321 22,000  Level Houston Center
Wed 04:04:04 PM 30.5131 -99.7903 304° West 279 321 22,000  Level Houston Center
Wed 04:05:04 PM 30.5564 -99.8636 305° West 279 321 22,000  Level Houston Center
Wed 04:06:03 PM 30.6000 -99.9347 306° West 279 321 22,000  Level Houston Center
Wed 04:07:04 PM 30.6456 -100.0083 306° West 279 321 22,000  Level Houston Center
Wed 04:08:04 PM 30.6908 -100.0819 306° West 279 321 22,000  Level Houston Center
Wed 04:09:04 PM 30.7364 -100.1558 304° West 279 321 22,000  Level Houston Center
Wed 04:10:04 PM 30.7797 -100.2294 305° West 279 321 22,000  Level Houston Center
Wed 04:11:04 PM 30.8231 -100.3008 304° West 279 321 22,000  Level Houston Center
Wed 04:12:04 PM 30.8661 -100.3744 304° West 279 321 22,000  Level Houston Center
Wed 04:13:04 PM 30.9092 -100.4483 306° West 279 321 22,000  Level Houston Center
Wed 04:14:39 PM 30.9817 -100.5656 306° West 283 326 22,000  Level Fort Worth Center
Wed 04:15:39 PM 31.0258 -100.6372 304° West 278 320 22,000  Level Fort Worth Center
Wed 04:16:39 PM 31.0697 -100.7139 305° West 278 320 22,000 -150 Level Fort Worth Center
Wed 04:17:39 PM 31.1136 -100.7883 304° West 278 320 21,700 -600 Descending Fort Worth Center
Wed 04:18:39 PM 31.1594 -100.8675 305° West 289 333 20,800 -850 Descending Fort Worth Center
Wed 04:19:39 PM 31.2075 -100.9472 302° West 289 333 20,000 -800 Descending Fort Worth Center
Wed 04:20:39 PM 31.2531 -101.0314 306° West 289 333 19,200 -850 Descending Fort Worth Center
Wed 04:21:39 PM 31.2989 -101.1061 306° West 289 333 18,300 -800 Descending Fort Worth Center
Wed 04:22:39 PM 31.3467 -101.1833 306° West 294 338 17,600 -700 Descending Fort Worth Center
Wed 04:23:39 PM 31.3886 -101.2508 306° West 294 338 16,900 -750 Descending Fort Worth Center
Wed 04:24:39 PM 31.4364 -101.3283 304° West 294 338 16,100 -1,100 Descending Fort Worth Center
Wed 04:25:39 PM 31.4817 -101.4081 305° West 294 338 14,700 -1,450 Descending Fort Worth Center
Wed 04:26:39 PM 31.5292 -101.4881 304° West 294 338 13,200 -1,400 Descending Fort Worth Center
Wed 04:27:39 PM 31.5747 -101.5683 304° West 294 338 11,900 -1,450 Descending Fort Worth Center
Wed 04:28:39 PM 31.6200 -101.6483 319° Northwest 294 338 10,300 -1,550 Descending Fort Worth Center
Wed 04:29:39 PM 31.6806 -101.7097 322° Northwest 294 338 8,800 -1,150 Descending Fort Worth Center
Wed 04:30:39 PM 31.7392 -101.7636 325° Northwest 282 325 8,000 -700 Descending Fort Worth Center
Wed 04:31:39 PM 31.7981 -101.8128 324° Northwest 269 310 7,400 -400 Descending Fort Worth Center
Wed 04:32:39 PM 31.8547 -101.8619 322° Northwest 258 297 7,200 -200 Descending Fort Worth Center
Wed 04:33:39 PM 31.9072 -101.9111 311° West 253 291 7,000 -150 Descending Fort Worth Center
Wed 04:34:39 PM 31.9511 -101.9697 314° West 243 280 6,900 -400 Descending Fort Worth Center
Wed 04:35:39 PM 31.9969 -102.0258 312° West 237 273 6,200 -700 Descending Fort Worth Center
Wed 04:36:39 PM 32.0389 -102.0817 299° West 237 273 5,500 -600 Descending Fort Worth Center
Wed 04:37:39 PM 32.0697 -102.1469 238° Southwest 232 267 5,000 -300 Descending Fort Worth Center
Wed 04:38:39 PM 32.0406 -102.2019 193° South 180 207 4,900 -500 Descending Fort Worth Center
Wed 04:39:39 PM 31.9964 -102.2142 169° South 160 184 4,000 -900 Descending Fort Worth Center
Wed 04:47:32 PM 31.4853 -102.0985 169° South  Level Estimated

Login

Don't have an account? Register now (free) for customized features, flight alerts, and more!